sensor_id;sensor_type;location;lat;lon;timestamp;temperature;humidity
6954;DHT22;3516;47.980;8.808;2022-07-05T04:17:26;25.40;99.90
6954;DHT22;3516;47.980;8.808;2022-07-05T04:19:55;25.40;99.90
6954;DHT22;3516;47.980;8.808;2022-07-05T04:22:21;25.40;99.90
6954;DHT22;3516;47.980;8.808;2022-07-05T04:24:48;25.40;99.90
6954;DHT22;3516;47.980;8.808;2022-07-05T04:27:32;25.50;99.90
6954;DHT22;3516;47.980;8.808;2022-07-05T04:29:59;25.40;99.90
6954;DHT22;3516;47.980;8.808;2022-07-05T04:32:27;25.50;99.90
6954;DHT22;3516;47.980;8.808;2022-07-05T04:34:53;25.40;99.90
6954;DHT22;3516;47.980;8.808;2022-07-05T04:37:20;25.50;99.90
6954;DHT22;3516;47.980;8.808;2022-07-05T04:39:47;25.40;99.90
6954;DHT22;3516;47.980;8.808;2022-07-05T04:42:14;25.50;99.90
6954;DHT22;3516;47.980;8.808;2022-07-05T04:44:40;25.50;99.90
6954;DHT22;3516;47.980;8.808;2022-07-05T04:47:07;25.50;99.90
6954;DHT22;3516;47.980;8.808;2022-07-05T04:49:35;25.50;99.90
6954;DHT22;3516;47.980;8.808;2022-07-05T04:52:02;25.50;99.90
6954;DHT22;3516;47.980;8.808;2022-07-05T04:54:28;25.50;99.90
6954;DHT22;3516;47.980;8.808;2022-07-05T04:56:55;25.50;99.90
6954;DHT22;3516;47.980;8.808;2022-07-05T04:59:22;25.50;99.90
6954;DHT22;3516;47.980;8.808;2022-07-05T05:01:48;25.40;99.90
6954;DHT22;3516;47.980;8.808;2022-07-05T05:04:15;25.50;99.90
6954;DHT22;3516;47.980;8.808;2022-07-05T05:06:43;25.50;99.90
6954;DHT22;3516;47.980;8.808;2022-07-05T05:09:10;25.50;99.90
6954;DHT22;3516;47.980;8.808;2022-07-05T05:11:36;25.40;99.90
6954;DHT22;3516;47.980;8.808;2022-07-05T05:14:03;25.40;99.90
6954;DHT22;3516;47.980;8.808;2022-07-05T05:16:30;25.40;99.90
6954;DHT22;3516;47.980;8.808;2022-07-05T05:18:56;25.40;99.90
6954;DHT22;3516;47.980;8.808;2022-07-05T05:21:23;25.50;99.90
6954;DHT22;3516;47.980;8.808;2022-07-05T05:23:51;25.40;99.90
6954;DHT22;3516;47.980;8.808;2022-07-05T05:26:18;25.40;99.90
6954;DHT22;3516;47.980;8.808;2022-07-05T05:28:44;25.40;99.90
6954;DHT22;3516;47.980;8.808;2022-07-05T05:31:11;25.40;99.90
6954;DHT22;3516;47.980;8.808;2022-07-05T05:33:37;25.40;99.90
6954;DHT22;3516;47.980;8.808;2022-07-05T05:36:05;25.40;99.90
6954;DHT22;3516;47.980;8.808;2022-07-05T05:38:32;25.40;99.90
6954;DHT22;3516;47.980;8.808;2022-07-05T05:41:00;25.40;99.90
6954;DHT22;3516;47.980;8.808;2022-07-05T05:43:26;25.40;99.90
6954;DHT22;3516;47.980;8.808;2022-07-05T05:45:53;25.50;99.90
6954;DHT22;3516;47.980;8.808;2022-07-05T05:48:20;25.50;99.90
6954;DHT22;3516;47.980;8.808;2022-07-05T05:50:47;25.50;99.90
6954;DHT22;3516;47.980;8.808;2022-07-05T05:53:13;25.40;99.90
6954;DHT22;3516;47.980;8.808;2022-07-05T05:55:40;25.50;99.90
6954;DHT22;3516;47.980;8.808;2022-07-05T05:58:12;25.50;99.90
6954;DHT22;3516;47.980;8.808;2022-07-05T06:00:39;25.50;99.90
6954;DHT22;3516;47.980;8.808;2022-07-05T06:03:06;25.50;99.90
6954;DHT22;3516;47.980;8.808;2022-07-05T06:05:34;25.50;99.90
6954;DHT22;3516;47.980;8.808;2022-07-05T06:08:01;25.50;99.90
6954;DHT22;3516;47.980;8.808;2022-07-05T06:10:29;25.50;99.90
6954;DHT22;3516;47.980;8.808;2022-07-05T06:12:57;25.50;99.90
6954;DHT22;3516;47.980;8.808;2022-07-05T06:15:26;25.50;99.90
6954;DHT22;3516;47.980;8.808;2022-07-05T06:17:54;25.50;99.90
6954;DHT22;3516;47.980;8.808;2022-07-05T06:20:22;25.50;99.90
6954;DHT22;3516;47.980;8.808;2022-07-05T06:22:49;25.50;99.90
6954;DHT22;3516;47.980;8.808;2022-07-05T06:25:16;25.40;99.90
6954;DHT22;3516;47.980;8.808;2022-07-05T06:27:46;25.40;99.90
6954;DHT22;3516;47.980;8.808;2022-07-05T06:30:14;25.30;99.90
6954;DHT22;3516;47.980;8.808;2022-07-05T06:32:43;25.30;99.90
6954;DHT22;3516;47.980;8.808;2022-07-05T06:35:10;25.20;99.90
6954;DHT22;3516;47.980;8.808;2022-07-05T06:37:41;25.10;99.90
6954;DHT22;3516;47.980;8.808;2022-07-05T06:40:09;25.10;99.90
6954;DHT22;3516;47.980;8.808;2022-07-05T06:42:36;25.10;99.90
6954;DHT22;3516;47.980;8.808;2022-07-05T06:45:04;25.10;99.90
6954;DHT22;3516;47.980;8.808;2022-07-05T06:47:31;25.10;99.90
6954;DHT22;3516;47.980;8.808;2022-07-05T06:50:00;25.10;99.90
6954;DHT22;3516;47.980;8.808;2022-07-05T06:52:28;25.10;99.90
6954;DHT22;3516;47.980;8.808;2022-07-05T06:54:55;25.10;99.90
6954;DHT22;3516;47.980;8.808;2022-07-05T06:57:22;25.10;99.90
6954;DHT22;3516;47.980;8.808;2022-07-05T06:59:49;25.10;99.90
6954;DHT22;3516;47.980;8.808;2022-07-05T07:02:17;25.10;99.90
6954;DHT22;3516;47.980;8.808;2022-07-05T07:04:44;25.10;99.90
6954;DHT22;3516;47.980;8.808;2022-07-05T07:07:13;25.10;99.90
6954;DHT22;3516;47.980;8.808;2022-07-05T07:09:56;25.10;99.90
6954;DHT22;3516;47.980;8.808;2022-07-05T07:12:23;25.10;99.90
6954;DHT22;3516;47.980;8.808;2022-07-05T07:14:50;25.10;99.90
6954;DHT22;3516;47.980;8.808;2022-07-05T07:17:17;25.20;99.90
6954;DHT22;3516;47.980;8.808;2022-07-05T07:19:44;25.20;99.90
6954;DHT22;3516;47.980;8.808;2022-07-05T07:22:10;25.20;99.90
6954;DHT22;3516;47.980;8.808;2022-07-05T07:24:38;25.20;99.90
6954;DHT22;3516;47.980;8.808;2022-07-05T07:27:05;25.20;99.90
6954;DHT22;3516;47.980;8.808;2022-07-05T07:29:34;25.20;99.90
6954;DHT22;3516;47.980;8.808;2022-07-05T07:32:01;25.20;99.90
6954;DHT22;3516;47.980;8.808;2022-07-05T07:34:28;25.20;99.90
6954;DHT22;3516;47.980;8.808;2022-07-05T07:36:55;25.20;99.90
6954;DHT22;3516;47.980;8.808;2022-07-05T07:39:22;25.20;99.90
6954;DHT22;3516;47.980;8.808;2022-07-05T07:41:50;25.20;99.90
6954;DHT22;3516;47.980;8.808;2022-07-05T07:44:17;25.20;99.90
6954;DHT22;3516;47.980;8.808;2022-07-05T07:46:44;25.20;99.90
6954;DHT22;3516;47.980;8.808;2022-07-05T07:49:11;25.20;99.90
6954;DHT22;3516;47.980;8.808;2022-07-05T07:51:38;25.20;99.90
6954;DHT22;3516;47.980;8.808;2022-07-05T07:54:05;25.20;99.90
6954;DHT22;3516;47.980;8.808;2022-07-05T07:56:32;25.20;99.90
6954;DHT22;3516;47.980;8.808;2022-07-05T07:59:00;25.20;99.90
6954;DHT22;3516;47.980;8.808;2022-07-05T08:01:27;25.20;99.90
6954;DHT22;3516;47.980;8.808;2022-07-05T08:03:54;25.30;99.90
6954;DHT22;3516;47.980;8.808;2022-07-05T08:06:20;25.30;99.90
6954;DHT22;3516;47.980;8.808;2022-07-05T08:08:47;25.30;99.90
6954;DHT22;3516;47.980;8.808;2022-07-05T08:11:14;25.30;99.90
6954;DHT22;3516;47.980;8.808;2022-07-05T08:13:40;25.30;99.90
6954;DHT22;3516;47.980;8.808;2022-07-05T08:16:09;25.30;99.80
6954;DHT22;3516;47.980;8.808;2022-07-05T08:18:36;25.30;99.60
6954;DHT22;3516;47.980;8.808;2022-07-05T08:21:28;25.30;99.50
6954;DHT22;3516;47.980;8.808;2022-07-05T08:24:00;25.30;99.30
6954;DHT22;3516;47.980;8.808;2022-07-05T08:26:28;25.30;99.20
6954;DHT22;3516;47.980;8.808;2022-07-05T08:28:55;25.30;99.00
6954;DHT22;3516;47.980;8.808;2022-07-05T08:31:25;25.30;98.80
6954;DHT22;3516;47.980;8.808;2022-07-05T08:33:52;25.30;98.70
6954;DHT22;3516;47.980;8.808;2022-07-05T08:36:19;25.30;98.50
6954;DHT22;3516;47.980;8.808;2022-07-05T08:38:46;25.30;98.40
6954;DHT22;3516;47.980;8.808;2022-07-05T08:41:13;25.30;98.20
6954;DHT22;3516;47.980;8.808;2022-07-05T08:43:44;25.30;98.00
6954;DHT22;3516;47.980;8.808;2022-07-05T08:46:12;25.30;97.80
6954;DHT22;3516;47.980;8.808;2022-07-05T08:48:42;25.30;97.80
6954;DHT22;3516;47.980;8.808;2022-07-05T08:51:10;25.30;97.70
6954;DHT22;3516;47.980;8.808;2022-07-05T08:53:38;25.30;97.50
6954;DHT22;3516;47.980;8.808;2022-07-05T08:56:07;25.30;97.30
6954;DHT22;3516;47.980;8.808;2022-07-05T08:58:34;25.30;97.20
6954;DHT22;3516;47.980;8.808;2022-07-05T09:01:02;25.30;97.00
6954;DHT22;3516;47.980;8.808;2022-07-05T09:03:29;25.30;96.80
6954;DHT22;3516;47.980;8.808;2022-07-05T09:05:59;25.30;96.60
6954;DHT22;3516;47.980;8.808;2022-07-05T09:08:29;25.30;96.50
6954;DHT22;3516;47.980;8.808;2022-07-05T09:10:57;25.30;96.30
6954;DHT22;3516;47.980;8.808;2022-07-05T09:13:25;25.30;96.10
6954;DHT22;3516;47.980;8.808;2022-07-05T09:15:52;25.30;96.00
6954;DHT22;3516;47.980;8.808;2022-07-05T09:18:40;25.30;95.70
6954;DHT22;3516;47.980;8.808;2022-07-05T09:21:18;25.30;95.50
6954;DHT22;3516;47.980;8.808;2022-07-05T09:23:53;25.30;95.40
6954;DHT22;3516;47.980;8.808;2022-07-05T09:26:21;25.30;95.40
6954;DHT22;3516;47.980;8.808;2022-07-05T09:28:54;25.30;95.10
6954;DHT22;3516;47.980;8.808;2022-07-05T09:31:26;25.30;94.90
6954;DHT22;3516;47.980;8.808;2022-07-05T09:33:54;25.30;94.70
6954;DHT22;3516;47.980;8.808;2022-07-05T09:36:22;25.30;94.50
6954;DHT22;3516;47.980;8.808;2022-07-05T09:38:50;25.30;94.30
6954;DHT22;3516;47.980;8.808;2022-07-05T09:41:18;25.30;94.10
6954;DHT22;3516;47.980;8.808;2022-07-05T09:43:45;25.30;93.90
6954;DHT22;3516;47.980;8.808;2022-07-05T09:46:12;25.30;93.80
6954;DHT22;3516;47.980;8.808;2022-07-05T09:48:50;25.30;93.60
6954;DHT22;3516;47.980;8.808;2022-07-05T09:51:17;25.30;93.40
6954;DHT22;3516;47.980;8.808;2022-07-05T09:53:47;25.30;93.30
6954;DHT22;3516;47.980;8.808;2022-07-05T09:56:14;25.30;93.20
6954;DHT22;3516;47.980;8.808;2022-07-05T09:58:41;25.30;92.90
6954;DHT22;3516;47.980;8.808;2022-07-05T10:01:22;25.30;92.90
6954;DHT22;3516;47.980;8.808;2022-07-05T10:03:52;25.30;92.90
6954;DHT22;3516;47.980;8.808;2022-07-05T10:06:19;25.30;92.70
6954;DHT22;3516;47.980;8.808;2022-07-05T10:08:47;25.30;92.50
6954;DHT22;3516;47.980;8.808;2022-07-05T10:11:14;25.40;92.40
6954;DHT22;3516;47.980;8.808;2022-07-05T10:13:42;25.30;92.30
6954;DHT22;3516;47.980;8.808;2022-07-05T10:16:09;25.40;92.20
6954;DHT22;3516;47.980;8.808;2022-07-05T10:18:36;25.40;92.10
6954;DHT22;3516;47.980;8.808;2022-07-05T10:21:04;25.40;92.00
6954;DHT22;3516;47.980;8.808;2022-07-05T10:23:31;25.40;92.00
6954;DHT22;3516;47.980;8.808;2022-07-05T10:26:00;25.40;92.20
6954;DHT22;3516;47.980;8.808;2022-07-05T10:28:27;25.40;91.80
6954;DHT22;3516;47.980;8.808;2022-07-05T10:30:54;25.40;91.70
6954;DHT22;3516;47.980;8.808;2022-07-05T10:33:21;25.40;91.60
6954;DHT22;3516;47.980;8.808;2022-07-05T10:35:52;25.40;91.50
6954;DHT22;3516;47.980;8.808;2022-07-05T10:38:19;25.40;91.40
6954;DHT22;3516;47.980;8.808;2022-07-05T10:40:46;25.40;91.30
6954;DHT22;3516;47.980;8.808;2022-07-05T10:43:15;25.40;90.90
6954;DHT22;3516;47.980;8.808;2022-07-05T10:45:46;25.30;90.50
6954;DHT22;3516;47.980;8.808;2022-07-05T10:48:14;25.30;90.20
6954;DHT22;3516;47.980;8.808;2022-07-05T10:50:44;25.30;89.80
6954;DHT22;3516;47.980;8.808;2022-07-05T10:53:11;25.30;89.10
6954;DHT22;3516;47.980;8.808;2022-07-05T10:55:54;25.20;88.10
6954;DHT22;3516;47.980;8.808;2022-07-05T10:58:29;25.20;87.90
6954;DHT22;3516;47.980;8.808;2022-07-05T11:03:42;25.20;86.30
6954;DHT22;3516;47.980;8.808;2022-07-05T11:06:18;25.10;85.20
6954;DHT22;3516;47.980;8.808;2022-07-05T11:11:45;25.10;84.50
6954;DHT22;3516;47.980;8.808;2022-07-05T11:14:30;25.10;83.80
6954;DHT22;3516;47.980;8.808;2022-07-05T11:23:01;25.20;82.50
6954;DHT22;3516;47.980;8.808;2022-07-05T11:25:29;25.20;82.10
6954;DHT22;3516;47.980;8.808;2022-07-05T11:28:00;25.20;81.70
6954;DHT22;3516;47.980;8.808;2022-07-05T11:30:28;25.20;81.40
6954;DHT22;3516;47.980;8.808;2022-07-05T11:32:55;25.30;81.10
6954;DHT22;3516;47.980;8.808;2022-07-05T11:35:28;25.20;80.80
6954;DHT22;3516;47.980;8.808;2022-07-05T11:38:02;25.30;80.50
6954;DHT22;3516;47.980;8.808;2022-07-05T11:40:31;25.30;80.10
6954;DHT22;3516;47.980;8.808;2022-07-05T11:42:58;25.30;79.50
6954;DHT22;3516;47.980;8.808;2022-07-05T11:45:25;25.30;79.30
6954;DHT22;3516;47.980;8.808;2022-07-05T11:47:54;25.30;79.20
6954;DHT22;3516;47.980;8.808;2022-07-05T11:50:26;25.30;78.80
6954;DHT22;3516;47.980;8.808;2022-07-05T11:52:53;25.30;78.30
6954;DHT22;3516;47.980;8.808;2022-07-05T11:55:20;25.30;78.00
6954;DHT22;3516;47.980;8.808;2022-07-05T11:57:50;25.30;77.60
6954;DHT22;3516;47.980;8.808;2022-07-05T12:00:27;25.30;77.30
6954;DHT22;3516;47.980;8.808;2022-07-05T12:02:55;25.30;77.20
6954;DHT22;3516;47.980;8.808;2022-07-05T12:05:22;25.30;76.80
6954;DHT22;3516;47.980;8.808;2022-07-05T12:07:48;25.30;76.40
6954;DHT22;3516;47.980;8.808;2022-07-05T12:10:15;25.30;76.10
6954;DHT22;3516;47.980;8.808;2022-07-05T12:13:03;25.30;75.60
6954;DHT22;3516;47.980;8.808;2022-07-05T12:15:29;25.30;75.20
6954;DHT22;3516;47.980;8.808;2022-07-05T12:17:59;25.30;74.80
6954;DHT22;3516;47.980;8.808;2022-07-05T12:20:28;25.30;74.30
6954;DHT22;3516;47.980;8.808;2022-07-05T12:22:55;25.20;73.80
6954;DHT22;3516;47.980;8.808;2022-07-05T12:25:24;25.30;73.40
6954;DHT22;3516;47.980;8.808;2022-07-05T12:27:51;25.30;73.40
6954;DHT22;3516;47.980;8.808;2022-07-05T12:30:19;25.30;73.40
6954;DHT22;3516;47.980;8.808;2022-07-05T12:32:55;25.30;73.20
6954;DHT22;3516;47.980;8.808;2022-07-05T12:35:27;25.30;72.90
6954;DHT22;3516;47.980;8.808;2022-07-05T12:37:56;25.30;72.60
6954;DHT22;3516;47.980;8.808;2022-07-05T12:40:23;25.30;72.40
6954;DHT22;3516;47.980;8.808;2022-07-05T12:42:59;25.30;72.10
6954;DHT22;3516;47.980;8.808;2022-07-05T12:45:26;25.30;71.90
6954;DHT22;3516;47.980;8.808;2022-07-05T12:47:53;25.30;71.70
6954;DHT22;3516;47.980;8.808;2022-07-05T12:50:21;25.40;71.70
6954;DHT22;3516;47.980;8.808;2022-07-05T12:53:00;25.40;71.40
6954;DHT22;3516;47.980;8.808;2022-07-05T12:55:59;25.40;71.20
6954;DHT22;3516;47.980;8.808;2022-07-05T12:58:47;25.40;71.00
6954;DHT22;3516;47.980;8.808;2022-07-05T13:01:20;25.40;70.90
6954;DHT22;3516;47.980;8.808;2022-07-05T13:03:57;25.40;70.60
6954;DHT22;3516;47.980;8.808;2022-07-05T13:06:38;25.40;70.40
6954;DHT22;3516;47.980;8.808;2022-07-05T13:09:05;25.40;70.30
6954;DHT22;3516;47.980;8.808;2022-07-05T13:11:33;25.40;70.00
6954;DHT22;3516;47.980;8.808;2022-07-05T13:14:00;25.40;69.90
6954;DHT22;3516;47.980;8.808;2022-07-05T13:16:26;25.40;70.40
6954;DHT22;3516;47.980;8.808;2022-07-05T13:18:53;25.40;69.50
6954;DHT22;3516;47.980;8.808;2022-07-05T13:21:20;25.40;69.50
6954;DHT22;3516;47.980;8.808;2022-07-05T13:23:47;25.40;69.30
6954;DHT22;3516;47.980;8.808;2022-07-05T13:26:13;25.40;69.10
6954;DHT22;3516;47.980;8.808;2022-07-05T13:28:41;25.40;69.00
6954;DHT22;3516;47.980;8.808;2022-07-05T13:31:08;25.40;68.80
6954;DHT22;3516;47.980;8.808;2022-07-05T13:33:37;25.40;68.70
6954;DHT22;3516;47.980;8.808;2022-07-05T13:36:03;25.40;68.60
6954;DHT22;3516;47.980;8.808;2022-07-05T13:38:30;25.40;68.50
6954;DHT22;3516;47.980;8.808;2022-07-05T13:40:57;25.40;68.40
6954;DHT22;3516;47.980;8.808;2022-07-05T13:43:23;25.40;68.30
6954;DHT22;3516;47.980;8.808;2022-07-05T13:45:51;25.40;68.10
6954;DHT22;3516;47.980;8.808;2022-07-05T13:48:18;25.50;68.10
6954;DHT22;3516;47.980;8.808;2022-07-05T13:50:45;25.40;67.90
6954;DHT22;3516;47.980;8.808;2022-07-05T13:53:12;25.50;67.90
6954;DHT22;3516;47.980;8.808;2022-07-05T13:55:38;25.50;67.80
6954;DHT22;3516;47.980;8.808;2022-07-05T13:58:05;25.50;67.70
6954;DHT22;3516;47.980;8.808;2022-07-05T14:00:31;25.50;67.60
6954;DHT22;3516;47.980;8.808;2022-07-05T14:02:59;25.50;67.50
6954;DHT22;3516;47.980;8.808;2022-07-05T14:05:26;25.50;67.50
6954;DHT22;3516;47.980;8.808;2022-07-05T14:07:53;25.50;67.50
6954;DHT22;3516;47.980;8.808;2022-07-05T14:10:19;25.50;67.50
6954;DHT22;3516;47.980;8.808;2022-07-05T14:12:46;25.50;67.50
6954;DHT22;3516;47.980;8.808;2022-07-05T14:15:13;25.50;67.50
6954;DHT22;3516;47.980;8.808;2022-07-05T14:17:39;25.50;67.40
6954;DHT22;3516;47.980;8.808;2022-07-05T14:20:09;25.50;67.20
6954;DHT22;3516;47.980;8.808;2022-07-05T14:22:36;25.50;67.20
6954;DHT22;3516;47.980;8.808;2022-07-05T14:25:03;25.60;67.10
6954;DHT22;3516;47.980;8.808;2022-07-05T14:27:30;25.50;67.00
6954;DHT22;3516;47.980;8.808;2022-07-05T14:29:57;25.50;66.90
6954;DHT22;3516;47.980;8.808;2022-07-05T14:32:24;25.50;66.90
6954;DHT22;3516;47.980;8.808;2022-07-05T14:34:50;25.50;66.70
6954;DHT22;3516;47.980;8.808;2022-07-05T14:37:18;25.60;66.70
6954;DHT22;3516;47.980;8.808;2022-07-05T14:39:46;25.60;66.70
6954;DHT22;3516;47.980;8.808;2022-07-05T14:42:13;25.50;66.60
6954;DHT22;3516;47.980;8.808;2022-07-05T14:44:39;25.60;66.60
6954;DHT22;3516;47.980;8.808;2022-07-05T14:47:06;25.50;66.50
6954;DHT22;3516;47.980;8.808;2022-07-05T14:49:33;25.60;66.60
6954;DHT22;3516;47.980;8.808;2022-07-05T14:51:59;25.50;66.50
6954;DHT22;3516;47.980;8.808;2022-07-05T14:54:27;25.60;66.50
6954;DHT22;3516;47.980;8.808;2022-07-05T14:56:54;25.50;66.40
6954;DHT22;3516;47.980;8.808;2022-07-05T14:59:20;25.60;66.50
6954;DHT22;3516;47.980;8.808;2022-07-05T15:01:47;25.60;66.40
6954;DHT22;3516;47.980;8.808;2022-07-05T15:04:14;25.60;66.40
6954;DHT22;3516;47.980;8.808;2022-07-05T15:06:42;25.60;66.40
6954;DHT22;3516;47.980;8.808;2022-07-05T15:09:09;25.60;66.40
6954;DHT22;3516;47.980;8.808;2022-07-05T15:11:37;25.60;66.40
6954;DHT22;3516;47.980;8.808;2022-07-05T15:14:04;25.60;66.40
6954;DHT22;3516;47.980;8.808;2022-07-05T15:16:31;25.50;66.40
6954;DHT22;3516;47.980;8.808;2022-07-05T15:19:00;25.60;66.30
6954;DHT22;3516;47.980;8.808;2022-07-05T15:21:27;25.60;66.40
6954;DHT22;3516;47.980;8.808;2022-07-05T15:23:54;25.60;66.30
6954;DHT22;3516;47.980;8.808;2022-07-05T15:26:23;25.60;66.30
6954;DHT22;3516;47.980;8.808;2022-07-05T15:29:04;25.60;66.30
6954;DHT22;3516;47.980;8.808;2022-07-05T15:31:31;25.50;66.20
6954;DHT22;3516;47.980;8.808;2022-07-05T15:33:59;25.60;66.40
6954;DHT22;3516;47.980;8.808;2022-07-05T15:36:26;25.60;66.40
6954;DHT22;3516;47.980;8.808;2022-07-05T15:38:58;25.60;66.40
6954;DHT22;3516;47.980;8.808;2022-07-05T15:41:26;25.60;66.50
6954;DHT22;3516;47.980;8.808;2022-07-05T15:43:54;25.60;66.60
6954;DHT22;3516;47.980;8.808;2022-07-05T15:46:22;25.60;66.60
6954;DHT22;3516;47.980;8.808;2022-07-05T15:48:49;25.60;66.70
6954;DHT22;3516;47.980;8.808;2022-07-05T15:51:16;25.60;66.70
6954;DHT22;3516;47.980;8.808;2022-07-05T15:53:42;25.60;66.70
6954;DHT22;3516;47.980;8.808;2022-07-05T15:58:36;25.60;66.20
6954;DHT22;3516;47.980;8.808;2022-07-05T16:01:05;25.60;66.80
6954;DHT22;3516;47.980;8.808;2022-07-05T16:03:33;25.60;66.80
6954;DHT22;3516;47.980;8.808;2022-07-05T16:06:02;25.60;66.90
6954;DHT22;3516;47.980;8.808;2022-07-05T16:08:29;25.60;67.10
6954;DHT22;3516;47.980;8.808;2022-07-05T16:10:56;25.60;67.30
6954;DHT22;3516;47.980;8.808;2022-07-05T16:13:22;25.60;67.60
6954;DHT22;3516;47.980;8.808;2022-07-05T16:15:50;25.60;67.60
6954;DHT22;3516;47.980;8.808;2022-07-05T16:18:35;25.60;67.60
6954;DHT22;3516;47.980;8.808;2022-07-05T16:21:02;25.60;67.60
6954;DHT22;3516;47.980;8.808;2022-07-05T16:23:30;25.60;67.60
6954;DHT22;3516;47.980;8.808;2022-07-05T16:25:57;25.70;67.80
6954;DHT22;3516;47.980;8.808;2022-07-05T16:28:25;25.70;68.00
6954;DHT22;3516;47.980;8.808;2022-07-05T16:30:51;25.70;68.20
6954;DHT22;3516;47.980;8.808;2022-07-05T16:33:18;25.70;68.30
6954;DHT22;3516;47.980;8.808;2022-07-05T16:35:46;25.70;68.40
6954;DHT22;3516;47.980;8.808;2022-07-05T16:38:13;25.70;68.50
6954;DHT22;3516;47.980;8.808;2022-07-05T16:40:40;25.70;68.60
6954;DHT22;3516;47.980;8.808;2022-07-05T16:43:06;25.70;68.70
6954;DHT22;3516;47.980;8.808;2022-07-05T16:45:33;25.70;68.80
6954;DHT22;3516;47.980;8.808;2022-07-05T16:48:00;25.60;68.80
6954;DHT22;3516;47.980;8.808;2022-07-05T16:50:26;25.70;68.90
6954;DHT22;3516;47.980;8.808;2022-07-05T16:52:56;25.60;68.90
6954;DHT22;3516;47.980;8.808;2022-07-05T16:55:23;25.60;69.00
6954;DHT22;3516;47.980;8.808;2022-07-05T16:57:50;25.60;69.10
6954;DHT22;3516;47.980;8.808;2022-07-05T17:00:17;25.60;69.10
6954;DHT22;3516;47.980;8.808;2022-07-05T17:02:43;25.60;69.20
6954;DHT22;3516;47.980;8.808;2022-07-05T17:05:12;25.60;69.30
6954;DHT22;3516;47.980;8.808;2022-07-05T17:07:39;25.70;69.40
6954;DHT22;3516;47.980;8.808;2022-07-05T17:10:07;25.60;69.40
6954;DHT22;3516;47.980;8.808;2022-07-05T17:12:34;25.60;69.50
6954;DHT22;3516;47.980;8.808;2022-07-05T17:15:01;25.60;69.50
6954;DHT22;3516;47.980;8.808;2022-07-05T17:17:27;25.60;69.70
6954;DHT22;3516;47.980;8.808;2022-07-05T17:19:54;25.60;69.70
6954;DHT22;3516;47.980;8.808;2022-07-05T17:22:21;25.60;69.80
6954;DHT22;3516;47.980;8.808;2022-07-05T17:24:47;25.60;69.90
6954;DHT22;3516;47.980;8.808;2022-07-05T17:27:15;25.60;70.00
6954;DHT22;3516;47.980;8.808;2022-07-05T17:29:42;25.60;70.10
6954;DHT22;3516;47.980;8.808;2022-07-05T17:32:09;25.60;70.10
6954;DHT22;3516;47.980;8.808;2022-07-05T17:34:35;25.60;70.20
6954;DHT22;3516;47.980;8.808;2022-07-05T17:37:02;25.60;70.20
6954;DHT22;3516;47.980;8.808;2022-07-05T17:39:29;25.60;70.20
6954;DHT22;3516;47.980;8.808;2022-07-05T17:41:55;25.60;70.30
6954;DHT22;3516;47.980;8.808;2022-07-05T17:44:23;25.60;70.30
6954;DHT22;3516;47.980;8.808;2022-07-05T17:46:50;25.60;70.40
6954;DHT22;3516;47.980;8.808;2022-07-05T17:49:17;25.60;70.40
6954;DHT22;3516;47.980;8.808;2022-07-05T17:51:44;25.60;70.40
6954;DHT22;3516;47.980;8.808;2022-07-05T17:54:11;25.60;70.50
6954;DHT22;3516;47.980;8.808;2022-07-05T17:56:38;25.60;70.50
6954;DHT22;3516;47.980;8.808;2022-07-05T17:59:05;25.60;70.60
6954;DHT22;3516;47.980;8.808;2022-07-05T18:01:33;25.60;70.60
6954;DHT22;3516;47.980;8.808;2022-07-05T18:04:00;25.60;70.60
6954;DHT22;3516;47.980;8.808;2022-07-05T18:06:26;25.60;70.60
6954;DHT22;3516;47.980;8.808;2022-07-05T18:08:53;25.60;70.60
6954;DHT22;3516;47.980;8.808;2022-07-05T18:11:20;25.60;70.60
6954;DHT22;3516;47.980;8.808;2022-07-05T18:13:47;25.50;70.60
6954;DHT22;3516;47.980;8.808;2022-07-05T18:16:13;25.60;70.60
6954;DHT22;3516;47.980;8.808;2022-07-05T18:18:42;25.50;70.60
6954;DHT22;3516;47.980;8.808;2022-07-05T18:21:11;25.50;70.60
6954;DHT22;3516;47.980;8.808;2022-07-05T18:23:37;25.50;70.60
6954;DHT22;3516;47.980;8.808;2022-07-05T18:26:04;25.60;70.60
6954;DHT22;3516;47.980;8.808;2022-07-05T18:28:31;25.50;70.60
6954;DHT22;3516;47.980;8.808;2022-07-05T18:30:57;25.50;70.50
6954;DHT22;3516;47.980;8.808;2022-07-05T18:33:24;25.50;70.50
6954;DHT22;3516;47.980;8.808;2022-07-05T18:35:52;25.50;70.50
6954;DHT22;3516;47.980;8.808;2022-07-05T18:38:19;25.50;70.40
6954;DHT22;3516;47.980;8.808;2022-07-05T18:40:45;25.50;70.40
6954;DHT22;3516;47.980;8.808;2022-07-05T18:43:12;25.50;70.30
6954;DHT22;3516;47.980;8.808;2022-07-05T18:45:39;25.50;70.30
6954;DHT22;3516;47.980;8.808;2022-07-05T18:48:06;25.50;70.30
6954;DHT22;3516;47.980;8.808;2022-07-05T18:50:36;25.50;70.20
6954;DHT22;3516;47.980;8.808;2022-07-05T18:53:05;25.50;70.20
6954;DHT22;3516;47.980;8.808;2022-07-05T18:55:32;25.50;70.20
6954;DHT22;3516;47.980;8.808;2022-07-05T18:57:59;25.40;70.20
6954;DHT22;3516;47.980;8.808;2022-07-05T19:00:26;25.50;70.40
6954;DHT22;3516;47.980;8.808;2022-07-05T19:02:52;25.50;70.40
6954;DHT22;3516;47.980;8.808;2022-07-05T19:05:19;25.50;70.40
6954;DHT22;3516;47.980;8.808;2022-07-05T19:07:45;25.50;70.50
6954;DHT22;3516;47.980;8.808;2022-07-05T19:10:31;25.50;70.50
6954;DHT22;3516;47.980;8.808;2022-07-05T19:13:15;25.50;70.60
6954;DHT22;3516;47.980;8.808;2022-07-05T19:15:59;25.50;70.70
6954;DHT22;3516;47.980;8.808;2022-07-05T19:18:26;25.50;70.80
6954;DHT22;3516;47.980;8.808;2022-07-05T19:20:53;25.50;70.80
6954;DHT22;3516;47.980;8.808;2022-07-05T19:23:19;25.50;70.80
6954;DHT22;3516;47.980;8.808;2022-07-05T19:25:47;25.50;70.80
6954;DHT22;3516;47.980;8.808;2022-07-05T19:28:14;25.50;70.80
6954;DHT22;3516;47.980;8.808;2022-07-05T19:30:40;25.60;71.00
6954;DHT22;3516;47.980;8.808;2022-07-05T19:33:07;25.50;70.90
6954;DHT22;3516;47.980;8.808;2022-07-05T19:35:34;25.60;71.80
6954;DHT22;3516;47.980;8.808;2022-07-05T19:38:00;25.50;71.00
6954;DHT22;3516;47.980;8.808;2022-07-05T19:40:27;25.50;71.00
6954;DHT22;3516;47.980;8.808;2022-07-05T19:42:55;25.50;71.00
6954;DHT22;3516;47.980;8.808;2022-07-05T19:45:22;25.50;71.10
6954;DHT22;3516;47.980;8.808;2022-07-05T19:47:49;25.50;71.20
6954;DHT22;3516;47.980;8.808;2022-07-05T19:50:16;25.50;71.30
6954;DHT22;3516;47.980;8.808;2022-07-05T19:52:43;25.50;71.30
6954;DHT22;3516;47.980;8.808;2022-07-05T19:55:11;25.50;71.40
6954;DHT22;3516;47.980;8.808;2022-07-05T19:57:38;25.50;71.40
6954;DHT22;3516;47.980;8.808;2022-07-05T20:00:07;25.50;71.50
6954;DHT22;3516;47.980;8.808;2022-07-05T20:02:34;25.50;71.50
6954;DHT22;3516;47.980;8.808;2022-07-05T20:05:01;25.50;71.60
6954;DHT22;3516;47.980;8.808;2022-07-05T20:07:27;25.50;71.60
6954;DHT22;3516;47.980;8.808;2022-07-05T20:09:54;25.50;71.70
6954;DHT22;3516;47.980;8.808;2022-07-05T20:12:21;25.50;71.70
6954;DHT22;3516;47.980;8.808;2022-07-05T20:14:47;25.50;71.70
6954;DHT22;3516;47.980;8.808;2022-07-05T20:17:15;25.50;71.80
6954;DHT22;3516;47.980;8.808;2022-07-05T20:19:42;25.50;71.90
6954;DHT22;3516;47.980;8.808;2022-07-05T20:22:09;25.50;71.90
6954;DHT22;3516;47.980;8.808;2022-07-05T20:24:36;25.50;72.00
6954;DHT22;3516;47.980;8.808;2022-07-05T20:27:03;25.50;72.00
6954;DHT22;3516;47.980;8.808;2022-07-05T20:29:29;25.50;72.00
6954;DHT22;3516;47.980;8.808;2022-07-05T20:31:56;25.50;72.00
6954;DHT22;3516;47.980;8.808;2022-07-05T20:34:24;25.50;72.10
6954;DHT22;3516;47.980;8.808;2022-07-05T20:36:51;25.50;72.10
6954;DHT22;3516;47.980;8.808;2022-07-05T20:39:18;25.50;72.10